^^
Your Local Weather - Clay, NY Station Historical Data
Daily Summary for July 8, 2017 Units:  English    Metric   Both
« Previous Day
Next Day »
Daily Weekly Monthly Yearly Custom
  High: Low: Average:
Temperature: 74.5 °F 61.4 °F 67.7 °F
Dew Point: 67.3 °F 52.4 °F 60.7 °F
Humidity: 94% 58% 79%
Wind Speed: 4.0mph 0.0mph 1.5mph
Wind Gust: 9.0mph - -
Wind- - WSW
Pressure: 29.85 in 29.62 in -
Precipitation: 0.87 in    
Historical Graphs
 
 
Tabular Data for July 8, 2017
Time Temperature Dew Point Pressure Wind Wind Speed Wind Gust Humidity Rainfall Rate (Hourly) solar
00:02 67.5 °F 63.8 °F 29.65 in Calm     88% 0.00 in 0 W/m2
00:06 67.3 °F 63.6 °F 29.65 in Calm     88% 0.00 in 0 W/m2
00:12 67.1 °F 63.7 °F 29.65 in Calm     89% 0.00 in 0 W/m2
00:18 66.9 °F 63.6 °F 29.64 in Calm     89% 0.00 in 0 W/m2
00:24 66.6 °F 63.3 °F 29.65 in Calm     89% 0.00 in 0 W/m2
00:30 66.4 °F 63.4 °F 29.64 in Calm     90% 0.00 in 0 W/m2
00:36 66.3 °F 63.3 °F 29.64 in Calm     90% 0.00 in 0 W/m2
00:42 66.0 °F 63.0 °F 29.64 in Calm     90% 0.00 in 0 W/m2
00:48 65.9 °F 62.9 °F 29.64 in Calm     90% 0.00 in 0 W/m2
00:54 65.8 °F 62.8 °F 29.64 in Calm     90% 0.00 in 0 W/m2
01:00 65.7 °F 62.7 °F 29.64 in Calm     90% 0.00 in 0 W/m2
01:06 65.5 °F 62.5 °F 29.64 in Calm     90% 0.00 in 0 W/m2
01:08 65.5 °F 62.8 °F 29.65 in Calm     91% 0.00 in 0 W/m2
01:14 65.4 °F 62.7 °F 29.65 in Calm     91% 0.00 in 0 W/m2
01:20 65.4 °F 62.7 °F 29.65 in Calm     91% 0.00 in 0 W/m2
01:26 65.4 °F 62.7 °F 29.65 in Calm     91% 0.00 in 0 W/m2
01:32 65.2 °F 62.5 °F 29.65 in Calm     91% 0.00 in 0 W/m2
01:38 65.1 °F 62.4 °F 29.65 in Calm     91% 0.00 in 0 W/m2
01:44 65.2 °F 62.5 °F 29.64 in Calm     91% 0.00 in 0 W/m2
01:50 65.3 °F 62.9 °F 29.64 in Calm     92% 0.00 in 0 W/m2
01:56 65.3 °F 62.9 °F 29.64 in Calm     92% 0.00 in 0 W/m2
02:02 65.2 °F 62.8 °F 29.64 in Calm     92% 0.00 in 0 W/m2
02:08 65.2 °F 62.8 °F 29.64 in Calm     92% 0.00 in 0 W/m2
02:14 65.2 °F 62.8 °F 29.63 in Calm     92% 0.00 in 0 W/m2
02:20 65.2 °F 62.8 °F 29.63 in Calm     92% 0.00 in 0 W/m2
02:26 65.4 °F 63.0 °F 29.64 in Calm     92% 0.00 in 0 W/m2
02:32 65.4 °F 63.0 °F 29.64 in Calm     92% 0.00 in 0 W/m2
02:38 65.4 °F 63.0 °F 29.64 in Calm     92% 0.00 in 0 W/m2
02:44 65.2 °F 62.8 °F 29.64 in Calm     92% 0.00 in 0 W/m2
02:50 65.1 °F 62.7 °F 29.63 in Calm     92% 0.00 in 0 W/m2
02:56 65.1 °F 62.7 °F 29.63 in Calm     92% 0.00 in 0 W/m2
03:02 65.1 °F 62.7 °F 29.63 in Calm     92% 0.00 in 0 W/m2
03:08 65.0 °F 62.6 °F 29.63 in Calm     92% 0.00 in 0 W/m2
03:14 65.0 °F 62.6 °F 29.63 in Calm     92% 0.00 in 0 W/m2
03:20 65.0 °F 62.6 °F 29.63 in Calm     92% 0.00 in 0 W/m2
03:26 65.1 °F 62.7 °F 29.63 in Calm     92% 0.00 in 0 W/m2
03:32 65.2 °F 63.1 °F 29.63 in Calm     93% 0.00 in 0 W/m2
03:38 65.3 °F 63.2 °F 29.63 in Calm     93% 0.00 in 0 W/m2
03:44 65.5 °F 63.4 °F 29.63 in Calm     93% 0.00 in 0 W/m2
03:50 65.7 °F 63.6 °F 29.63 in Calm     93% 0.00 in 0 W/m2
03:56 65.8 °F 63.7 °F 29.63 in Calm     93% 0.00 in 0 W/m2
04:02 65.9 °F 63.8 °F 29.63 in Calm     93% 0.00 in 0 W/m2
04:08 66.3 °F 64.2 °F 29.63 in Calm   2.0 mph 93% 0.22 in 0 W/m2
04:14 66.7 °F 64.6 °F 29.63 in WSW 1.0 mph 4.0 mph 93% 0.14 in 0 W/m2
04:20 66.5 °F 64.4 °F 29.64 in NW 3.0 mph 3.0 mph 93% 1.78 in 0 W/m2
04:26 65.4 °F 63.0 °F 29.63 in NW 2.0 mph 3.0 mph 92% 0.12 in 0 W/m2
04:32 64.9 °F 62.2 °F 29.63 in WSW 1.0 mph 4.0 mph 91% 0.10 in 0 W/m2
04:38 65.6 °F 63.2 °F 29.63 in WSW 2.0 mph 4.0 mph 92% 0.05 in 0 W/m2
04:44 66.3 °F 63.9 °F 29.63 in West 1.0 mph 2.0 mph 92% 0.00 in 0 W/m2
04:50 66.5 °F 64.1 °F 29.63 in West 1.0 mph 1.0 mph 92% 0.00 in 0 W/m2
04:56 66.6 °F 64.2 °F 29.63 in Calm   1.0 mph 92% 0.00 in 0 W/m2
05:02 66.6 °F 64.2 °F 29.63 in Calm     92% 0.00 in 0 W/m2
05:08 66.5 °F 64.1 °F 29.63 in Calm   2.0 mph 92% 0.00 in 0 W/m2
05:14 66.4 °F 64.0 °F 29.62 in West 1.0 mph 2.0 mph 92% 0.00 in 0 W/m2
05:20 66.5 °F 64.1 °F 29.62 in South 2.0 mph 2.0 mph 92% 0.00 in 0 W/m2
05:26 66.7 °F 64.3 °F 29.63 in South 2.0 mph 2.0 mph 92% 0.00 in 0 W/m2
05:32 66.8 °F 64.4 °F 29.64 in Calm   1.0 mph 92% 0.00 in 0 W/m2
05:38 66.8 °F 64.4 °F 29.64 in Calm   1.0 mph 92% 0.00 in 0 W/m2
05:44 66.5 °F 64.1 °F 29.64 in Calm     92% 0.00 in 0 W/m2
05:50 66.5 °F 64.1 °F 29.65 in Calm   2.0 mph 92% 0.00 in 5 W/m2
05:56 66.6 °F 64.5 °F 29.66 in North 1.0 mph 2.0 mph 93% 0.00 in 0 W/m2
06:02 65.8 °F 63.4 °F 29.66 in NNW 3.0 mph 4.0 mph 92% 0.00 in 7 W/m2
06:08 65.4 °F 63.0 °F 29.66 in NNE 3.0 mph 4.0 mph 92% 0.00 in 7 W/m2
06:14 65.2 °F 62.8 °F 29.65 in NNE 2.0 mph 3.0 mph 92% 0.00 in 5 W/m2
06:20 65.1 °F 63.0 °F 29.66 in NNE 1.0 mph 1.0 mph 93% 0.00 in 7 W/m2
06:26 65.1 °F 63.0 °F 29.65 in Calm   1.0 mph 93% 0.00 in 5 W/m2
06:32 65.0 °F 62.9 °F 29.65 in Calm     93% 0.00 in 9 W/m2
06:38 65.0 °F 62.9 °F 29.65 in Calm     93% 0.00 in 18 W/m2
06:44 65.0 °F 62.9 °F 29.65 in Calm     93% 0.00 in 60 W/m2
06:50 65.1 °F 63.0 °F 29.65 in Calm     93% 0.00 in 42 W/m2
06:56 65.4 °F 63.3 °F 29.65 in Calm     93% 0.00 in 11 W/m2
07:02 65.6 °F 63.5 °F 29.66 in NW 1.0 mph 1.0 mph 93% 1.42 in 7 W/m2
07:08 65.4 °F 63.3 °F 29.68 in WSW 1.0 mph 3.0 mph 93% 0.93 in 5 W/m2
07:14 64.5 °F 62.4 °F 29.67 in NW 1.0 mph 2.0 mph 93% 2.80 in 0 W/m2
07:20 63.8 °F 61.7 °F 29.67 in SW 1.0 mph 1.0 mph 93% 0.65 in 0 W/m2
07:26 63.8 °F 61.7 °F 29.66 in SW 1.0 mph 2.0 mph 93% 0.16 in 0 W/m2
07:32 63.8 °F 61.7 °F 29.65 in SE 1.0 mph 1.0 mph 93% 0.08 in 5 W/m2
07:38 63.7 °F 61.6 °F 29.64 in SE 1.0 mph 3.0 mph 93% 0.04 in 5 W/m2
07:44 63.8 °F 61.7 °F 29.65 in SSE 2.0 mph 2.0 mph 93% 0.00 in 0 W/m2
07:50 63.9 °F 61.8 °F 29.67 in SSE 2.0 mph 4.0 mph 93% 0.00 in 7 W/m2
07:56 64.2 °F 62.1 °F 29.66 in South 3.0 mph 5.0 mph 93% 0.00 in 14 W/m2
08:02 64.3 °F 62.5 °F 29.66 in SSW 3.0 mph 5.0 mph 94% 0.00 in 19 W/m2
08:08 64.3 °F 62.5 °F 29.66 in South 3.0 mph 5.0 mph 94% 0.00 in 33 W/m2
08:16 64.2 °F 62.4 °F 29.67 in South 3.0 mph 4.0 mph 94% 0.00 in 63 W/m2
08:22 63.8 °F 61.7 °F 29.67 in SSE 4.0 mph 5.0 mph 93% 0.00 in 104 W/m2
08:28 63.6 °F 61.5 °F 29.66 in South 3.0 mph 5.0 mph 93% 0.00 in 116 W/m2
08:34 63.7 °F 61.6 °F 29.66 in South 2.0 mph 4.0 mph 93% 0.00 in 102 W/m2
08:40 64.0 °F 61.9 °F 29.65 in SSE 2.0 mph 2.0 mph 93% 0.00 in 135 W/m2
08:46 64.2 °F 62.1 °F 29.65 in South 2.0 mph 2.0 mph 93% 0.00 in 128 W/m2
08:52 64.7 °F 62.3 °F 29.66 in South 2.0 mph 3.0 mph 92% 0.00 in 541 W/m2
08:58 65.3 °F 62.9 °F 29.66 in SSW 2.0 mph 3.0 mph 92% 0.00 in 564 W/m2
09:04 65.8 °F 62.8 °F 29.67 in SSE 4.0 mph 6.0 mph 90% 0.00 in 255 W/m2
09:10 66.5 °F 63.2 °F 29.68 in SW 3.0 mph 3.0 mph 89% 0.00 in 682 W/m2
09:16 66.8 °F 62.5 °F 29.68 in South 2.0 mph 6.0 mph 86% 0.00 in 258 W/m2
09:22 67.0 °F 62.3 °F 29.68 in SSW 3.0 mph 3.0 mph 85% 0.00 in 547 W/m2
09:28 67.3 °F 62.6 °F 29.68 in SSE 2.0 mph 3.0 mph 85% 0.00 in 336 W/m2
09:34 67.4 °F 62.7 °F 29.68 in SSE 2.0 mph 5.0 mph 85% 0.00 in 515 W/m2
09:40 67.9 °F 63.2 °F 29.68 in SSW 2.0 mph 3.0 mph 85% 0.00 in 570 W/m2
09:46 68.3 °F 63.3 °F 29.67 in SW 2.0 mph 4.0 mph 84% 0.00 in 237 W/m2
09:52 68.2 °F 62.8 °F 29.68 in SW 2.0 mph 4.0 mph 83% 0.00 in 200 W/m2
09:58 67.7 °F 62.0 °F 29.68 in SSW 3.0 mph 5.0 mph 82% 0.00 in 204 W/m2
10:04 67.4 °F 61.7 °F 29.68 in SE 3.0 mph 3.0 mph 82% 0.00 in 155 W/m2
10:10 67.5 °F 62.2 °F 29.68 in South 2.0 mph 2.0 mph 83% 0.00 in 271 W/m2
10:16 67.7 °F 62.7 °F 29.68 in WSW 2.0 mph 3.0 mph 84% 0.00 in 253 W/m2
10:22 68.1 °F 63.4 °F 29.68 in WSW 1.0 mph 2.0 mph 85% 0.00 in 221 W/m2
10:28 68.3 °F 63.3 °F 29.68 in WSW 1.0 mph 2.0 mph 84% 0.00 in 199 W/m2
10:34 68.3 °F 63.3 °F 29.69 in SW 1.0 mph 4.0 mph 84% 0.00 in 146 W/m2
10:40 68.6 °F 63.9 °F 29.69 in SW 2.0 mph 6.0 mph 85% 0.00 in 420 W/m2
10:46 69.4 °F 64.7 °F 29.68 in SW 2.0 mph 6.0 mph 85% 0.00 in 415 W/m2
10:52 69.7 °F 64.3 °F 29.68 in WSW 2.0 mph 9.0 mph 83% 0.00 in 309 W/m2
10:58 70.1 °F 65.0 °F 29.68 in NW 2.0 mph 9.0 mph 84% 0.00 in 388 W/m2
11:04 71.5 °F 66.8 °F 29.68 in SW 2.0 mph 5.0 mph 85% 0.00 in 285 W/m2
11:10 71.4 °F 66.0 °F 29.69 in North 2.0 mph 4.0 mph 83% 0.00 in 322 W/m2
11:16 71.4 °F 65.6 °F 29.68 in NW 2.0 mph 4.0 mph 82% 0.00 in 410 W/m2
11:22 71.6 °F 65.8 °F 29.68 in WNW 2.0 mph 2.0 mph 82% 0.00 in 336 W/m2
11:28 71.4 °F 65.3 °F 29.68 in WSW 2.0 mph 3.0 mph 81% 0.00 in 439 W/m2
11:34 72.9 °F 66.4 °F 29.68 in WSW 2.0 mph 8.0 mph 80% 0.00 in 770 W/m2
11:40 73.3 °F 66.0 °F 29.68 in SW 3.0 mph 3.0 mph 78% 0.00 in 1116 W/m2
11:46 73.6 °F 66.3 °F 29.68 in SW 3.0 mph 3.0 mph 78% 0.00 in 696 W/m2
11:52 73.8 °F 66.5 °F 29.68 in North 2.0 mph 2.0 mph 78% 0.00 in 330 W/m2
11:58 73.7 °F 66.4 °F 29.68 in WSW 3.0 mph 7.0 mph 78% 0.00 in 401 W/m2
12:04 73.1 °F 64.7 °F 29.69 in WSW 4.0 mph 6.0 mph 75% 0.00 in 153 W/m2
12:10 72.1 °F 64.9 °F 29.69 in SSW 4.0 mph 6.0 mph 78% 0.00 in 411 W/m2
12:16 72.4 °F 65.5 °F 29.69 in WSW 3.0 mph 9.0 mph 79% 0.00 in 1106 W/m2
12:22 72.3 °F 65.4 °F 29.69 in SW 4.0 mph 4.0 mph 79% 0.00 in 97 W/m2
12:28 70.7 °F 64.2 °F 29.69 in West 3.0 mph 5.0 mph 80% 0.00 in 146 W/m2
12:34 69.7 °F 64.3 °F 29.69 in WNW 2.0 mph 5.0 mph 83% 0.00 in 216 W/m2
12:40 69.2 °F 64.8 °F 29.69 in WSW 2.0 mph 2.0 mph 86% 0.00 in 410 W/m2
12:46 69.8 °F 65.4 °F 29.70 in WNW 2.0 mph 6.0 mph 86% 0.00 in 348 W/m2
12:52 71.4 °F 67.3 °F 29.70 in NNW 2.0 mph 2.0 mph 87% 0.00 in 1259 W/m2
12:58 72.5 °F 64.5 °F 29.70 in NNW 2.0 mph 3.0 mph 76% 0.00 in 1311 W/m2
13:04 72.3 °F 64.7 °F 29.70 in WNW 3.0 mph 5.0 mph 77% 0.00 in 942 W/m2
13:10 72.1 °F 64.1 °F 29.71 in NW 3.0 mph 3.0 mph 76% 0.00 in 594 W/m2
13:16 71.1 °F 63.1 °F 29.71 in WNW 3.0 mph 7.0 mph 76% 0.00 in 503 W/m2
13:22 71.0 °F 64.2 °F 29.71 in West 4.0 mph 4.0 mph 79% 0.00 in 983 W/m2
13:28 72.1 °F 64.5 °F 29.71 in WSW 4.0 mph 5.0 mph 77% 0.00 in 951 W/m2
13:34 72.2 °F 64.2 °F 29.71 in NNW 3.0 mph 7.0 mph 76% 0.00 in 972 W/m2
13:40 72.7 °F 65.1 °F 29.71 in NW 3.0 mph 6.0 mph 77% 0.00 in 461 W/m2
13:46 71.4 °F 62.7 °F 29.71 in West 3.0 mph 6.0 mph 74% 0.00 in 418 W/m2
13:52 69.9 °F 62.0 °F 29.71 in NW 3.0 mph 5.0 mph 76% 0.00 in 367 W/m2
13:58 71.1 °F 63.5 °F 29.71 in NNW 3.0 mph 5.0 mph 77% 0.00 in 427 W/m2
14:04 71.1 °F 63.5 °F 29.72 in NW 3.0 mph 3.0 mph 77% 0.00 in 543 W/m2
14:10 71.2 °F 62.9 °F 29.71 in West 3.0 mph 3.0 mph 75% 0.00 in 650 W/m2
14:16 71.4 °F 64.2 °F 29.72 in WNW 2.0 mph 4.0 mph 78% 0.00 in 404 W/m2
14:22 72.0 °F 62.9 °F 29.72 in WSW 2.0 mph 3.0 mph 73% 0.00 in 455 W/m2
14:28 71.4 °F 63.1 °F 29.72 in SSW 3.0 mph 5.0 mph 75% 0.00 in 294 W/m2
14:34 71.9 °F 63.9 °F 29.72 in WSW 3.0 mph 3.0 mph 76% 0.00 in 345 W/m2
14:40 71.9 °F 62.8 °F 29.72 in WSW 2.0 mph 2.0 mph 73% 0.00 in 257 W/m2
14:46 71.5 °F 62.4 °F 29.72 in West 2.0 mph 2.0 mph 73% 0.00 in 262 W/m2
14:52 71.3 °F 64.1 °F 29.72 in SW 2.0 mph 7.0 mph 78% 0.00 in 838 W/m2
14:59 71.5 °F 62.4 °F 29.73 in WNW 2.0 mph 7.0 mph 73% 0.00 in 401 W/m2
15:04 73.0 °F 64.2 °F 29.73 in West 2.0 mph 3.0 mph 74% 0.00 in 1049 W/m2
15:10 72.4 °F 62.9 °F 29.73 in NW 2.0 mph 5.0 mph 72% 0.00 in 258 W/m2
15:16 72.9 °F 62.1 °F 29.73 in NW 2.0 mph 5.0 mph 69% 0.00 in 916 W/m2
15:22 73.0 °F 62.2 °F 29.73 in WSW 3.0 mph 5.0 mph 69% 0.00 in 225 W/m2
15:28 73.3 °F 62.9 °F 29.73 in NW 3.0 mph 5.0 mph 70% 0.00 in 911 W/m2
15:34 73.8 °F 63.0 °F 29.73 in NNW 2.0 mph 4.0 mph 69% 0.00 in 884 W/m2
15:40 73.5 °F 61.9 °F 29.73 in WNW 2.0 mph 2.0 mph 67% 0.00 in 896 W/m2
15:46 73.8 °F 62.2 °F 29.74 in NW 2.0 mph 2.0 mph 67% 0.00 in 879 W/m2
15:52 74.5 °F 62.4 °F 29.73 in NNW 2.0 mph 3.0 mph 66% 0.00 in 946 W/m2
15:58 74.2 °F 62.1 °F 29.74 in West 3.0 mph 5.0 mph 66% 0.00 in 835 W/m2
16:04 73.3 °F 62.1 °F 29.74 in NW 3.0 mph 3.0 mph 68% 0.00 in 190 W/m2
16:10 72.8 °F 62.0 °F 29.74 in NW 3.0 mph 4.0 mph 69% 0.00 in 812 W/m2
16:18 72.9 °F 61.7 °F 29.74 in SW 3.0 mph 5.0 mph 68% 0.00 in 768 W/m2
16:24 73.0 °F 61.4 °F 29.74 in NW 3.0 mph 4.0 mph 67% 0.00 in 135 W/m2
16:30 72.2 °F 61.9 °F 29.74 in NW 2.0 mph 3.0 mph 70% 0.00 in 301 W/m2
16:36 72.1 °F 62.2 °F 29.74 in NW 3.0 mph 5.0 mph 71% 0.00 in 221 W/m2
16:42 72.6 °F 61.4 °F 29.74 in WNW 3.0 mph 3.0 mph 68% 0.00 in 195 W/m2
16:48 72.5 °F 62.2 °F 29.74 in NW 3.0 mph 4.0 mph 70% 0.00 in 218 W/m2
16:54 72.3 °F 61.6 °F 29.74 in NW 3.0 mph 4.0 mph 69% 0.00 in 111 W/m2
17:00 72.0 °F 60.9 °F 29.74 in North 3.0 mph 3.0 mph 68% 0.00 in 230 W/m2
17:06 71.8 °F 61.1 °F 29.75 in WNW 4.0 mph 6.0 mph 69% 0.00 in 156 W/m2
17:12 71.7 °F 60.2 °F 29.75 in WNW 4.0 mph 4.0 mph 67% 0.00 in 186 W/m2
17:18 71.7 °F 59.7 °F 29.75 in NNE 3.0 mph 4.0 mph 66% 0.00 in 70 W/m2
17:24 71.8 °F 59.4 °F 29.74 in NW 3.0 mph 5.0 mph 65% 0.00 in 69 W/m2
17:30 71.7 °F 57.5 °F 29.75 in SW 3.0 mph 5.0 mph 61% 0.00 in 51 W/m2
17:36 71.5 °F 57.3 °F 29.75 in NW 3.0 mph 5.0 mph 61% 0.00 in 47 W/m2
17:42 71.3 °F 57.2 °F 29.75 in SW 3.0 mph 3.0 mph 61% 0.00 in 46 W/m2
17:48 71.2 °F 56.6 °F 29.75 in NW 2.0 mph 3.0 mph 60% 0.00 in 44 W/m2
17:54 71.1 °F 56.0 °F 29.75 in NNW 3.0 mph 4.0 mph 59% 0.00 in 44 W/m2
18:00 71.0 °F 56.4 °F 29.75 in NW 3.0 mph 3.0 mph 60% 0.00 in 42 W/m2
18:06 71.1 °F 56.0 °F 29.75 in NW 2.0 mph 4.0 mph 59% 0.00 in 42 W/m2
18:12 71.0 °F 55.9 °F 29.75 in North 3.0 mph 3.0 mph 59% 0.00 in 42 W/m2
18:18 71.0 °F 55.9 °F 29.75 in West 2.0 mph 5.0 mph 59% 0.00 in 40 W/m2
18:24 71.0 °F 56.9 °F 29.76 in NNW 2.0 mph 2.0 mph 61% 0.00 in 40 W/m2
18:30 70.9 °F 55.9 °F 29.76 in WNW 2.0 mph 5.0 mph 59% 0.00 in 39 W/m2
18:36 70.7 °F 56.1 °F 29.76 in NW 2.0 mph 5.0 mph 60% 0.00 in 37 W/m2
18:42 70.5 °F 55.5 °F 29.76 in NW 2.0 mph 5.0 mph 59% 0.00 in 35 W/m2
18:48 70.3 °F 55.3 °F 29.76 in North 3.0 mph 5.0 mph 59% 0.00 in 33 W/m2
18:54 70.1 °F 55.1 °F 29.76 in West 3.0 mph 6.0 mph 59% 0.00 in 32 W/m2
19:00 69.9 °F 54.4 °F 29.77 in WNW 3.0 mph 3.0 mph 58% 0.00 in 32 W/m2
19:06 69.8 °F 54.8 °F 29.77 in WNW 2.0 mph 3.0 mph 59% 0.00 in 30 W/m2
19:12 69.7 °F 54.3 °F 29.77 in WSW 2.0 mph 4.0 mph 58% 0.00 in 35 W/m2
19:18 69.6 °F 54.2 °F 29.77 in NW 2.0 mph 4.0 mph 58% 0.00 in 35 W/m2
19:24 69.4 °F 54.4 °F 29.77 in WNW 2.0 mph 4.0 mph 59% 0.00 in 28 W/m2
19:30 69.3 °F 54.4 °F 29.77 in West 2.0 mph 2.0 mph 59% 0.00 in 26 W/m2
19:36 69.1 °F 54.6 °F 29.77 in NW 2.0 mph 2.0 mph 60% 0.00 in 25 W/m2
19:42 68.8 °F 54.8 °F 29.78 in NW 1.0 mph 1.0 mph 61% 0.00 in 25 W/m2
19:48 68.6 °F 54.6 °F 29.79 in NW 1.0 mph 1.0 mph 61% 0.00 in 23 W/m2
19:54 68.4 °F 54.4 °F 29.79 in NW 1.0 mph 4.0 mph 61% 0.00 in 28 W/m2
20:00 68.3 °F 54.8 °F 29.79 in WSW 1.0 mph 1.0 mph 62% 0.00 in 19 W/m2
20:06 68.1 °F 54.6 °F 29.79 in West 1.0 mph 3.0 mph 62% 0.00 in 18 W/m2
20:12 67.7 °F 54.6 °F 29.79 in WNW 1.0 mph 1.0 mph 63% 0.00 in 16 W/m2
20:18 67.4 °F 53.9 °F 29.79 in WNW 1.0 mph 2.0 mph 62% 0.00 in 14 W/m2
20:24 67.2 °F 54.6 °F 29.79 in WNW 1.0 mph 1.0 mph 64% 0.00 in 12 W/m2
20:30 67.0 °F 54.0 °F 29.79 in West 1.0 mph 1.0 mph 63% 0.00 in 9 W/m2
20:36 66.7 °F 54.1 °F 29.79 in Calm   1.0 mph 64% 0.00 in 7 W/m2
20:42 66.4 °F 53.8 °F 29.79 in Calm   1.0 mph 64% 0.00 in 5 W/m2
20:48 66.1 °F 53.6 °F 29.79 in Calm   1.0 mph 64% 0.00 in 0 W/m2
20:54 65.9 °F 53.4 °F 29.79 in Calm     64% 0.00 in 0 W/m2
21:00 65.6 °F 53.1 °F 29.79 in Calm     64% 0.00 in 0 W/m2
21:06 65.4 °F 52.9 °F 29.80 in Calm     64% 0.00 in 0 W/m2
21:12 65.2 °F 53.1 °F 29.80 in Calm     65% 0.00 in 0 W/m2
21:18 65.0 °F 52.9 °F 29.80 in Calm     65% 0.00 in 0 W/m2
21:24 64.8 °F 53.2 °F 29.80 in Calm     66% 0.00 in 0 W/m2
21:30 64.5 °F 52.9 °F 29.81 in Calm     66% 0.00 in 0 W/m2
21:36 64.1 °F 52.9 °F 29.81 in Calm     67% 0.00 in 0 W/m2
21:42 63.9 °F 53.1 °F 29.82 in Calm     68% 0.00 in 0 W/m2
21:48 63.8 °F 52.6 °F 29.82 in Calm   1.0 mph 67% 0.00 in 0 W/m2
21:54 63.9 °F 52.7 °F 29.82 in Calm   2.0 mph 67% 0.00 in 0 W/m2
22:00 64.0 °F 52.4 °F 29.82 in WSW 1.0 mph 1.0 mph 66% 0.00 in 0 W/m2
22:06 63.9 °F 52.7 °F 29.82 in WSW 1.0 mph 2.0 mph 67% 0.00 in 0 W/m2
22:12 63.7 °F 52.5 °F 29.82 in WSW 1.0 mph 1.0 mph 67% 0.00 in 0 W/m2
22:18 63.4 °F 52.7 °F 29.83 in Calm   1.0 mph 68% 0.00 in 0 W/m2
22:24 63.1 °F 52.4 °F 29.83 in Calm     68% 0.00 in 0 W/m2
22:30 62.7 °F 52.4 °F 29.83 in Calm     69% 0.00 in 0 W/m2
22:36 62.4 °F 52.5 °F 29.83 in Calm   1.0 mph 70% 0.00 in 0 W/m2
22:42 62.3 °F 52.8 °F 29.83 in Calm   2.0 mph 71% 0.00 in 0 W/m2
22:48 62.3 °F 52.8 °F 29.84 in Calm   2.0 mph 71% 0.00 in 0 W/m2
22:54 62.2 °F 52.7 °F 29.84 in Calm     71% 0.00 in 0 W/m2
23:00 61.8 °F 52.7 °F 29.84 in Calm     72% 0.00 in 0 W/m2
23:06 61.8 °F 52.7 °F 29.84 in Calm   1.0 mph 72% 0.00 in 0 W/m2
23:12 61.6 °F 52.9 °F 29.84 in Calm     73% 0.00 in 0 W/m2
23:18 61.5 °F 52.8 °F 29.84 in Calm   2.0 mph 73% 0.00 in 0 W/m2
23:24 61.4 °F 52.7 °F 29.84 in Calm     73% 0.00 in 0 W/m2
23:30 61.4 °F 52.7 °F 29.84 in WSW 1.0 mph 1.0 mph 73% 0.00 in 0 W/m2
23:36 61.4 °F 52.7 °F 29.84 in SW 1.0 mph 1.0 mph 73% 0.00 in 0 W/m2
23:42 61.5 °F 52.8 °F 29.84 in SW 1.0 mph 1.0 mph 73% 0.00 in 0 W/m2
23:48 61.4 °F 52.7 °F 29.85 in Calm   4.0 mph 73% 0.00 in 0 W/m2
23:54 61.4 °F 52.7 °F 29.85 in Calm     73% 0.00 in 0 W/m2
Country Meadow, Clay, NY, USA
Compliments of Weather Underground - 2 mb